Data for 12/14/2005

Time Sea-Level Adjusted Pressure Absolute Pressure Temperature Relative Humidity Dew Point   
(mb) (inHg) (mb) (inHg) (C) (F) (%) (C) (F)
00:05 1020 30.12 849 25.07 -5.3 22.5 61 -11.6 11.2
00:10 1020 30.12 849 25.07 -5.3 22.5 62 -11.4 11.5
00:15 1020 30.12 849 25.07 -5.2 22.7 62 -11.4 11.6
00:20 1020 30.12 849 25.07 -5.2 22.7 62 -11.4 11.4
00:25 1020 30.12 849 25.07 -5.2 22.6 63 -11.3 11.7
00:30 1020 30.12 849 25.07 -5.4 22.4 64 -11.2 11.9
00:35 1020 30.12 849 25.07 -5.3 22.5 63 -11.2 11.8
00:40 1020 30.12 849 25.07 -5.3 22.5 63 -11.4 11.6
00:45 1020 30.12 849 25.07 -5.3 22.5 62 -11.4 11.5
00:50 1020 30.12 849 25.07 -5.2 22.6 62 -11.4 11.5
00:55 1020 30.12 849 25.07 -5.2 22.7 63 -11.2 11.9
01:00 1020 30.12 849 25.07 -5.2 22.6 63 -11.3 11.7
01:05 1020 30.12 849 25.07 -5.2 22.6 62 -11.4 11.5
01:10 1020 30.12 849 25.07 -5.2 22.7 62 -11.5 11.4
01:15 1020 30.12 849 25.07 -5.2 22.6 62 -11.4 11.4
01:20 1020 30.12 850 25.1 -5.3 22.5 63 -11.3 11.6
01:25 1020 30.12 850 25.1 -5.3 22.5 62 -11.5 11.3
01:30 1020 30.12 850 25.1 -5.3 22.5 62 -11.5 11.3
01:35 1020 30.12 850 25.1 -5.3 22.5 62 -11.4 11.5
01:40 1020 30.12 850 25.1 -5.3 22.5 60 -11.8 10.8
01:45 1020 30.12 850 25.1 -5.2 22.6 60 -11.9 10.7
01:50 1021 30.15 850 25.1 -5.2 22.6 59 -12.1 10.2
01:55 1021 30.15 850 25.1 -5.3 22.5 60 -12 10.5
02:00 1021 30.15 850 25.1 -5.3 22.4 62 -11.6 11.1
02:05 1021 30.15 850 25.1 -5.6 22 62 -11.7 10.9
02:10 1021 30.15 850 25.1 -5.7 21.7 62 -11.9 10.6
02:15 1021 30.15 850 25.1 -5.8 21.5 63 -11.8 10.7
02:20 1021 30.15 850 25.1 -5.9 21.3 64 -11.7 11
02:25 1021 30.15 850 25.1 -6 21.3 63 -12 10.4
02:30 1021 30.15 850 25.1 -5.7 21.8 59 -12.4 9.6
02:35 1021 30.15 850 25.1 -5.2 22.6 57 -12.5 9.5
02:40 1021 30.15 850 25.1 -5.1 22.9 56 -12.5 9.5
02:45 1021 30.15 850 25.1 -5.1 22.7 58 -12.2 10
02:50 1021 30.15 850 25.1 -5.2 22.6 57 -12.4 9.6
02:55 1021 30.15 850 25.1 -5.3 22.5 57 -12.4 9.6
03:00 1021 30.15 850 25.1 -5.3 22.4 58 -12.4 9.6
03:05 1021 30.15 850 25.1 -5.4 22.2 58 -12.4 9.7
03:10 1021 30.15 850 25.1 -5.6 22 59 -12.3 9.8
03:15 1021 30.15 850 25.1 -5.7 21.7 60 -12.4 9.7
03:20 1021 30.15 850 25.1 -5.7 21.7 60 -12.4 9.7
03:25 1021 30.15 851 25.13 -5.6 21.8 59 -12.4 9.6
03:30 1021 30.15 851 25.13 -5.6 22 59 -12.5 9.5
03:35 1021 30.15 851 25.13 -5.5 22 58 -12.7 9.2
03:40 1021 30.15 851 25.13 -5.4 22.2 57 -12.7 9.1
03:45 1021 30.15 851 25.13 -5.5 22.1 57 -12.6 9.3
03:50 1021 30.15 851 25.13 -5.5 22.1 57 -12.8 9
03:55 1021 30.15 851 25.13 -5.5 22.1 56 -12.9 8.8
04:00 1021 30.15 851 25.13 -5.5 22.2 58 -12.5 9.4
04:05 1021 30.15 851 25.13 -5.5 22.1 60 -12.1 10.2
04:10 1021 30.15 851 25.13 -5.7 21.7 60 -12.3 9.8
04:15 1021 30.15 851 25.13 -5.8 21.5 61 -12.2 10
04:20 1021 30.15 850 25.1 -5.8 21.6 59 -12.6 9.3
04:25 1021 30.15 850 25.1 -5.8 21.6 59 -12.5 9.5
04:30 1021 30.15 850 25.1 -5.7 21.7 59 -12.6 9.4
04:35 1021 30.15 851 25.13 -5.7 21.8 58 -12.7 9.2
04:40 1021 30.15 851 25.13 -5.7 21.8 59 -12.5 9.4
04:45 1021 30.15 851 25.13 -5.7 21.7 59 -12.5 9.5
04:50 1022 30.18 851 25.13 -5.7 21.7 59 -12.5 9.4
04:55 1022 30.18 851 25.13 -5.8 21.6 59 -12.6 9.3
05:00 1022 30.18 851 25.13 -5.8 21.6 58 -12.7 9.1
05:05 1022 30.18 851 25.13 -5.6 21.9 58 -12.6 9.4
05:10 1022 30.18 851 25.13 -5.6 21.9 57 -12.7 9.1
05:15 1022 30.18 851 25.13 -5.5 22.1 57 -12.7 9.2
05:20 1022 30.18 851 25.13 -5.4 22.3 57 -12.7 9.2
05:25 1022 30.18 851 25.13 -5.5 22.2 57 -12.7 9.1
05:30 1022 30.18 851 25.13 -5.5 22.1 58 -12.6 9.3
05:35 1022 30.18 851 25.13 -5.5 22.1 57 -12.8 9
05:40 1022 30.18 851 25.13 -5.5 22.1 57 -12.8 9
05:45 1022 30.18 851 25.13 -5.4 22.3 56 -12.8 9
05:50 1022 30.18 851 25.13 -5.4 22.3 57 -12.5 9.4
05:55 1022 30.18 851 25.13 -5.3 22.5 59 -12.2 10.1
06:00 1022 30.18 851 25.13 -5.3 22.5 59 -12.2 10.1
06:05 1022 30.18 851 25.13 -5.2 22.7 58 -12.1 10.2
06:10 1022 30.18 852 25.16 -5.5 22 60 -12.2 10.1
06:15 1022 30.18 852 25.16 -5.6 21.9 62 -11.8 10.7
06:20 1022 30.18 852 25.16 -5.5 22.1 59 -12.4 9.7
06:25 1022 30.18 852 25.16 -5.2 22.6 57 -12.5 9.5
06:30 1022 30.18 852 25.16 -5 23 56 -12.5 9.5
06:35 1022 30.18 852 25.16 -4.9 23.2 55 -12.5 9.4
06:40 1022 30.18 852 25.16 -4.9 23.2 57 -12.3 9.9
06:45 1023 30.21 852 25.16 -4.8 23.3 57 -12.1 10.2
06:50 1023 30.21 852 25.16 -4.9 23.2 57 -12.1 10.2
06:55 1023 30.21 852 25.16 -4.9 23.2 58 -12 10.5
07:00 1023 30.21 852 25.16 -5 23 58 -12 10.4
07:05 1023 30.21 852 25.16 -5 22.9 58 -12 10.5
07:10 1023 30.21 852 25.16 -5 23 58 -12 10.3
07:15 1023 30.21 852 25.16 -5.1 22.9 58 -12.1 10.2
07:20 1023 30.21 852 25.16 -5.1 22.9 59 -12 10.4
07:25 1023 30.21 852 25.16 -5.1 22.9 58 -12 10.4
07:30 1023 30.21 852 25.16 -5.1 22.9 58 -12.1 10.2
07:35 1023 30.21 852 25.16 -5 23 59 -11.9 10.5
07:40 1023 30.21 852 25.16 -5 23 59 -11.9 10.6
07:45 1023 30.21 852 25.16 -5.1 22.9 60 -11.7 11
07:50 1023 30.21 852 25.16 -5.1 22.8 60 -11.7 10.9
07:55 1023 30.21 852 25.16 -5.2 22.6 61 -11.7 10.9
08:00 1023 30.21 852 25.16 -5.2 22.6 61 -11.6 11.1
08:05 1023 30.21 852 25.16 -5.2 22.7 61 -11.7 11
08:10 1023 30.21 852 25.16 -5.2 22.7 62 -11.3 11.7
08:15 1023 30.21 852 25.16 -5.2 22.7 62 -11.5 11.4
08:20 1023 30.21 852 25.16 -5.1 22.8 62 -11.3 11.6
08:25 1023 30.21 852 25.16 -5.1 22.8 62 -11.3 11.7
08:30 1023 30.21 853 25.19 -5.2 22.7 63 -11.2 11.9
08:35 1023 30.21 853 25.19 -5.2 22.7 64 -10.8 12.5
08:40 1023 30.21 853 25.19 -5.2 22.6 64 -11 12.2
08:45 1023 30.21 853 25.19 -5.1 22.8 64 -11 12.3
08:50 1023 30.21 853 25.19 -5 22.9 62 -11.2 11.8
08:55 1023 30.21 853 25.19 -4.8 23.3 60 -11.4 11.5
09:00 1024 30.24 853 25.19 -4.8 23.4 61 -11.2 11.8
09:05 1024 30.24 853 25.19 -4.7 23.5 61 -11.1 12
09:10 1024 30.24 853 25.19 -4.5 23.9 59 -11.3 11.7
09:15 1024 30.24 853 25.19 -4.4 24.2 59 -11.2 11.9
09:20 1024 30.24 853 25.19 -4.2 24.4 59 -11.2 11.9
09:25 1024 30.24 853 25.19 -4.2 24.5 59 -10.9 12.3
09:30 1024 30.24 853 25.19 -4.2 24.4 60 -11 12.3
09:35 1024 30.24 853 25.19 -4.3 24.3 60 -10.9 12.4
09:40 1024 30.24 853 25.19 -4.2 24.5 58 -11.2 11.9
09:45 1024 30.24 853 25.19 -4.2 24.4 60 -10.9 12.3
09:50 1024 30.24 853 25.19 -4.2 24.5 58 -11.3 11.7
09:55 1024 30.24 853 25.19 -4.1 24.7 56 -11.5 11.3
10:00 1024 30.24 853 25.19 -4.1 24.6 57 -11.4 11.4
10:05 1024 30.24 853 25.19 -3.9 24.9 57 -11.3 11.6
10:10 1024 30.24 853 25.19 -3.8 25.2 55 -11.5 11.3
10:15 1024 30.24 853 25.19 -3.8 25.2 56 -11.3 11.6
10:20 1024 30.24 853 25.19 -3.8 25.2 56 -11.3 11.7
10:25 1024 30.24 853 25.19 -3.7 25.3 55 -11.5 11.4
10:30 1024 30.24 853 25.19 -3.6 25.5 54 -11.6 11.1
10:35 1024 30.24 853 25.19 -3.7 25.4 54 -11.7 10.9
10:40 1024 30.24 853 25.19 -3.9 25 54 -11.8 10.7
10:45 1024 30.24 853 25.19 -3.8 25.1 54 -11.9 10.6
10:50 1024 30.24 853 25.19 -3.9 25 55 -11.6 11.1
10:55 1024 30.24 853 25.19 -4 24.8 55 -11.8 10.8
11:00 1024 30.24 853 25.19 -3.9 24.9 56 -11.4 11.5
11:05 1024 30.24 853 25.19 -3.7 25.3 55 -11.5 11.3
11:10 1024 30.24 853 25.19 -3.7 25.4 55 -11.5 11.3
11:15 1024 30.24 853 25.19 -3.6 25.4 54 -11.6 11.1
11:20 1024 30.24 853 25.19 -3.4 25.8 55 -11.3 11.7
11:25 1024 30.24 853 25.19 -3.6 25.6 56 -11 12.1
11:30 1024 30.24 853 25.19 -3.6 25.5 57 -10.9 12.3
11:35 1024 30.24 853 25.19 -3.7 25.3 57 -11 12.1
11:40 1024 30.24 853 25.19 -3.6 25.5 55 -11.4 11.4
11:45 1024 30.24 853 25.19 -3.6 25.6 55 -11.4 11.5
11:50 1024 30.24 853 25.19 -3.5 25.8 56 -10.9 12.3
11:55 1024 30.24 853 25.19 -3.5 25.6 55 -11.3 11.6
12:00 1024 30.24 853 25.19 -3.4 25.9 56 -11 12.2
12:05 1024 30.24 853 25.19 -3.1 26.5 54 -11.2 11.8
12:10 1024 30.24 853 25.19 -3.6 25.6 55 -11.3 11.6
12:15 1024 30.24 853 25.19 -3.7 25.3 53 -12 10.5
12:20 1024 30.24 853 25.19 -3.6 25.5 54 -11.6 11.1
12:25 1024 30.24 853 25.19 -3.4 25.8 53 -11.7 10.9
12:30 1024 30.24 853 25.19 -3.4 26 51 -12.1 10.2
12:35 1024 30.24 853 25.19 -3.6 25.5 54 -11.7 11
12:40 1024 30.24 853 25.19 -3.7 25.4 53 -11.9 10.6
12:45 1024 30.24 853 25.19 -3.7 25.3 53 -11.9 10.6
12:50 1024 30.24 853 25.19 -3.5 25.7 51 -12.3 9.9
12:55 1024 30.24 853 25.19 -3.2 26.2 50 -12.2 10.1
13:00 1024 30.24 853 25.19 -3 26.5 48 -12.6 9.3
13:05 1024 30.24 853 25.19 -2.4 27.7 44 -12.9 8.7
13:10 1024 30.24 853 25.19 -2.5 27.6 47 -12.4 9.7
13:15 1024 30.24 853 25.19 -2.3 27.8 45 -12.6 9.3
13:20 1024 30.24 853 25.19 -2.2 28.1 45 -12.6 9.3
13:25 1024 30.24 853 25.19 -2.1 28.1 45 -12.6 9.3
13:30 1024 30.24 853 25.19 -2.4 27.7 45 -12.8 8.9
13:35 1024 30.24 853 25.19 -2.5 27.5 46 -12.5 9.5
13:40 1024 30.24 853 25.19 -2 28.4 44 -12.7 9.2
13:45 1024 30.24 853 25.19 -1.9 28.6 43 -12.9 8.8
13:50 1023 30.21 853 25.19 -2.1 28.3 44 -12.7 9.2
13:55 1023 30.21 853 25.19 -2.1 28.3 43 -13.1 8.3
14:00 1023 30.21 853 25.19 -2.5 27.5 45 -12.9 8.8
14:05 1023 30.21 852 25.16 -2.8 27 45 -13.2 8.2
14:10 1023 30.21 852 25.16 -2.7 27.1 45 -13.2 8.3
14:15 1023 30.21 852 25.16 -2.8 27 46 -12.8 9
14:20 1023 30.21 852 25.16 -2.9 26.8 45 -13.3 8
14:25 1023 30.21 852 25.16 -2.9 26.8 45 -13.2 8.3
14:30 1023 30.21 852 25.16 -2.6 27.4 43 -13.4 7.9
14:35 1023 30.21 852 25.16 -3.1 26.5 47 -13 8.7
14:40 1023 30.21 852 25.16 -3.1 26.4 46 -13.3 8
14:45 1023 30.21 852 25.16 -3.2 26.2 46 -13.3 8.1
14:50 1023 30.21 852 25.16 -3.1 26.5 47 -12.9 8.7
14:55 1023 30.21 852 25.16 -3 26.6 46 -13 8.6
15:00 1023 30.21 852 25.16 -2.9 26.9 45 -13.3 8.1
15:05 1023 30.21 852 25.16 -2.9 26.8 45 -13.2 8.2
15:10 1023 30.21 852 25.16 -2.5 27.6 44 -13.1 8.4
15:15 1023 30.21 852 25.16 -1.9 28.7 41 -13.4 7.9
15:20 1023 30.21 852 25.16 -1.3 29.6 39 -13.6 7.6
15:25 1023 30.21 852 25.16 -1.6 29.2 41 -13.2 8.3
15:30 1023 30.21 852 25.16 -2 28.4 42 -13.3 8.1
15:35 1023 30.21 852 25.16 -2.1 28.3 42 -13.5 7.7
15:40 1023 30.21 852 25.16 -2.1 28.3 44 -12.8 8.9
15:45 1023 30.21 852 25.16 -1.9 28.6 43 -12.9 8.7
15:50 1023 30.21 852 25.16 -1.6 29.1 40 -13.4 7.9
15:55 1023 30.21 852 25.16 -1.6 29.1 43 -12.5 9.4
16:00 1023 30.21 852 25.16 -1.6 29.2 42 -12.9 8.9
16:05 1023 30.21 852 25.16 -2.4 27.6 44 -13.2 8.3
16:10 1023 30.21 852 25.16 -2.6 27.3 43 -13.5 7.7
16:15 1023 30.21 852 25.16 -3.4 25.9 46 -13.3 8
16:20 1023 30.21 852 25.16 -2.9 26.7 44 -13.5 7.7
16:25 1023 30.21 852 25.16 -2.7 27.2 46 -12.9 8.8
16:30 1023 30.21 852 25.16 -3.9 24.9 51 -12.7 9.1
16:35 1023 30.21 852 25.16 -4.8 23.3 53 -13 8.5
16:40 1023 30.21 852 25.16 -5.2 22.7 56 -12.7 9.1
16:45 1023 30.21 852 25.16 -5.5 22.2 57 -12.7 9.1
16:50 1023 30.21 852 25.16 -5.7 21.7 58 -12.7 9.1
16:55 1023 30.21 852 25.16 -6 21.1 58 -13 8.6
17:00 1023 30.21 852 25.16 -6.3 20.6 58 -13.3 8
17:05 1023 30.21 852 25.16 -6.6 20.2 59 -13.4 8
17:10 1023 30.21 852 25.16 -6.7 19.9 62 -12.9 8.8
17:15 1023 30.21 852 25.16 -7.2 19.1 64 -12.8 8.9
17:20 1023 30.21 852 25.16 -7.7 18.1 66 -13 8.6
17:25 1023 30.21 852 25.16 -7.8 18 65 -13.2 8.3
17:30 1023 30.21 852 25.16 -7.7 18.1 65 -13.2 8.3
17:35 1023 30.21 852 25.16 -7.8 17.9 66 -13 8.6
17:40 1023 30.21 852 25.16 -8 17.6 67 -13 8.5
17:45 1023 30.21 852 25.16 -7.9 17.7 67 -13.1 8.5
17:50 1023 30.21 852 25.16 -7.6 18.2 66 -13 8.7
17:55 1023 30.21 852 25.16 -7.8 17.9 66 -13.1 8.4
18:00 1023 30.21 852 25.16 -7.8 17.9 66 -13.2 8.3
18:05 1023 30.21 852 25.16 -8.1 17.4 67 -13.2 8.3
18:10 1023 30.21 852 25.16 -8.3 17.1 69 -13 8.6
18:15 1023 30.21 852 25.16 -8.4 16.8 69 -13.1 8.4
18:20 1023 30.21 852 25.16 -8.4 17 67 -13.4 7.9
18:25 1023 30.21 852 25.16 -8.4 16.9 68 -13.3 8.1
18:30 1023 30.21 853 25.19 -8.5 16.8 69 -13.2 8.2
18:35 1023 30.21 853 25.19 -8.5 16.7 68 -13.4 7.9
18:40 1023 30.21 853 25.19 -8.5 16.7 68 -13.5 7.7
18:45 1024 30.24 853 25.19 -8.6 16.5 69 -13.4 7.9
18:50 1024 30.24 853 25.19 -8.7 16.4 70 -13.2 8.2
18:55 1024 30.24 853 25.19 -8.6 16.6 68 -13.4 7.8
19:00 1024 30.24 853 25.19 -8.7 16.4 68 -13.6 7.5
19:05 1024 30.24 853 25.19 -8.8 16.1 70 -13.4 8
19:10 1024 30.24 853 25.19 -8.7 16.3 68 -13.7 7.4
19:15 1024 30.24 853 25.19 -8.6 16.5 67 -13.6 7.5
19:20 1024 30.24 853 25.19 -8.7 16.3 67 -13.8 7.1
19:25 1024 30.24 853 25.19 -8.5 16.6 66 -13.8 7.1
19:30 1024 30.24 853 25.19 -8.6 16.6 65 -13.9 7
19:35 1024 30.24 853 25.19 -8.8 16.2 65 -14.2 6.4
19:40 1024 30.24 853 25.19 -9 15.9 66 -14.2 6.5
19:45 1024 30.24 853 25.19 -8.7 16.3 65 -14.1 6.6
19:50 1024 30.24 853 25.19 -8.7 16.4 67 -13.6 7.5
19:55 1024 30.24 853 25.19 -8.8 16.1 66 -14 6.8
20:00 1024 30.24 853 25.19 -9.2 15.5 68 -14 6.8
20:05 1024 30.24 853 25.19 -9.4 15.1 68 -14.2 6.4
20:10 1024 30.24 853 25.19 -9.4 15 68 -14.3 6.3
20:15 1024 30.24 853 25.19 -9.6 14.8 68 -14.4 6
20:20 1024 30.24 853 25.19 -9.8 14.3 70 -14.3 6.3
20:25 1024 30.24 853 25.19 -10 14 70 -14.4 6
20:30 1024 30.24 853 25.19 -10 14 70 -14.4 6.1
20:35 1024 30.24 853 25.19 -9.9 14.2 70 -14.5 6
20:40 1024 30.24 853 25.19 -10.1 13.9 70 -14.5 5.9
20:45 1024 30.24 853 25.19 -10.2 13.7 71 -14.5 5.8
20:50 1024 30.24 853 25.19 -10.5 13.2 71 -14.7 5.6
20:55 1024 30.24 853 25.19 -10.9 12.4 72 -15 5
21:00 1024 30.24 853 25.19 -10.8 12.6 72 -14.9 5.2
21:05 1024 30.24 853 25.19 -10.6 12.8 71 -14.9 5.3
21:10 1024 30.24 853 25.19 -10.7 12.8 72 -14.8 5.4
21:15 1024 30.24 853 25.19 -10.8 12.5 72 -14.9 5.2
21:20 1024 30.24 853 25.19 -10.9 12.4 72 -14.9 5.1
21:25 1024 30.24 853 25.19 -10.8 12.6 72 -14.8 5.3
21:30 1024 30.24 853 25.19 -10.5 13 71 -14.8 5.4
21:35 1024 30.24 853 25.19 -10.2 13.6 69 -14.8 5.4
21:40 1024 30.24 853 25.19 -10.3 13.4 69 -14.9 5.2
21:45 1024 30.24 853 25.19 -10.2 13.6 70 -14.6 5.7
21:50 1024 30.24 853 25.19 -10.1 13.8 69 -14.7 5.5
21:55 1024 30.24 853 25.19 -10.3 13.5 70 -14.8 5.3
22:00 1024 30.24 853 25.19 -10.1 13.8 69 -14.7 5.6
22:05 1024 30.24 853 25.19 -10.2 13.7 70 -14.7 5.6
22:10 1024 30.24 853 25.19 -10.2 13.7 71 -14.5 5.9
22:15 1024 30.24 853 25.19 -10.3 13.6 71 -14.5 5.9
22:20 1024 30.24 853 25.19 -10.5 13.1 72 -14.5 5.8
22:25 1024 30.24 853 25.19 -10.5 13.2 71 -14.7 5.5
22:30 1024 30.24 853 25.19 -10.4 13.3 73 -14.3 6.2
22:35 1024 30.24 853 25.19 -10.3 13.4 73 -14.2 6.4
22:40 1024 30.24 853 25.19 -10.4 13.4 71 -14.7 5.6
22:45 1024 30.24 853 25.19 -10.4 13.2 71 -14.7 5.5
22:50 1024 30.24 853 25.19 -10.1 13.8 75 -13.7 7.4
22:55 1024 30.24 853 25.19 -9.9 14.1 72 -14 6.8
23:00 1024 30.24 854 25.22 -10.3 13.4 71 -14.6 5.7
23:05 1024 30.24 854 25.22 -10.3 13.5 71 -14.6 5.8
23:10 1024 30.24 854 25.22 -10.3 13.5 73 -14.3 6.3
23:15 1024 30.24 854 25.22 -10.3 13.5 72 -14.4 6
23:20 1024 30.24 854 25.22 -10.5 13 71 -14.8 5.4
23:25 1024 30.24 854 25.22 -10.9 12.3 73 -14.9 5.2
23:30 1024 30.24 854 25.22 -10.8 12.5 72 -14.9 5.1
23:35 1024 30.24 854 25.22 -10.9 12.5 72 -15 5
23:40 1024 30.24 854 25.22 -10.7 12.7 73 -14.8 5.4
23:45 1024 30.24 854 25.22 -11 12.2 75 -14.6 5.7
23:50 1024 30.24 854 25.22 -10.8 12.6 76 -14.2 6.5
23:55 1024 30.24 854 25.22 -10.7 12.8 70 -15.1 4.8
24:00 1024 30.24 854 25.22 -11 12.3 72 -15.1 4.7